Time;durP1;ratioP1;P1;durP2;ratioP2;P2;SDS_P1;SDS_P2;PMS_P1;PMS_P2;Temp;Humidity;BMP_temperature;BMP_pressure;BME280_temperature;BME280_humidity;BME280_pressure;Samples;Min_cycle;Max_cycle;Signal;HPM_P1;HPM_P2
2023/07/30 00:02:21;;;;;;;3.90;3.70;;;;;;;;;;5113707;28;20488;-66
2023/07/30 00:04:48;;;;;;;3.60;3.40;;;;;;;;;;5113365;28;20940;-65
2023/07/30 00:07:15;;;;;;;3.20;3.03;;;;;;;;;;5113201;28;20456;-66
2023/07/30 00:09:42;;;;;;;4.13;3.23;;;;;;;;;;5113564;28;20543;-66
2023/07/30 00:12:10;;;;;;;3.10;2.90;;;;;;;;;;5114121;28;20461;-65
2023/07/30 00:14:38;;;;;;;3.23;2.80;;;;;;;;;;5117709;28;20455;-65
2023/07/30 00:17:05;;;;;;;3.67;3.37;;;;;;;;;;5117553;28;20452;-66
2023/07/30 00:19:33;;;;;;;3.80;3.50;;;;;;;;;;5117564;28;20539;-65
2023/07/30 00:22:00;;;;;;;3.20;3.00;;;;;;;;;;5117236;28;20552;-66
2023/07/30 00:24:27;;;;;;;3.47;3.30;;;;;;;;;;5117513;28;20450;-66
2023/07/30 00:26:54;;;;;;;3.63;3.23;;;;;;;;;;5117480;28;20807;-65
2023/07/30 00:29:20;;;;;;;3.03;2.73;;;;;;;;;;5117317;28;20455;-66
2023/07/30 00:31:49;;;;;;;3.30;3.10;;;;;;;;;;5117140;28;20452;-66
2023/07/30 00:34:16;;;;;;;3.03;2.93;;;;;;;;;;5117111;28;20571;-66
2023/07/30 00:36:43;;;;;;;6.13;3.70;;;;;;;;;;5117142;28;20459;-66
2023/07/30 00:39:11;;;;;;;3.03;2.83;;;;;;;;;;5117246;28;20487;-66
2023/07/30 00:41:38;;;;;;;3.73;3.43;;;;;;;;;;5117037;28;20551;-65
2023/07/30 00:44:05;;;;;;;3.77;3.57;;;;;;;;;;5117077;28;20453;-65
2023/07/30 00:46:32;;;;;;;4.27;3.97;;;;;;;;;;5117004;28;20457;-66
2023/07/30 00:49:00;;;;;;;4.07;3.70;;;;;;;;;;5116888;28;21011;-66
2023/07/30 00:51:27;;;;;;;6.50;3.33;;;;;;;;;;5117073;28;20779;-65
2023/07/30 00:53:54;;;;;;;3.40;3.20;;;;;;;;;;5116913;28;20448;-66
2023/07/30 00:56:21;;;;;;;3.93;3.30;;;;;;;;;;5116566;28;21010;-66
2023/07/30 00:58:50;;;;;;;4.80;3.00;;;;;;;;;;5116748;28;20807;-66
2023/07/30 01:01:17;;;;;;;3.90;3.07;;;;;;;;;;5116614;28;20456;-66
2023/07/30 01:03:44;;;;;;;4.40;3.47;;;;;;;;;;5116589;28;20455;-66
2023/07/30 01:06:12;;;;;;;3.30;3.10;;;;;;;;;;5116717;28;20448;-66
2023/07/30 01:08:39;;;;;;;3.60;3.30;;;;;;;;;;5116736;28;20820;-66
2023/07/30 01:11:07;;;;;;;5.10;3.07;;;;;;;;;;5116606;28;20824;-66
2023/07/30 01:13:34;;;;;;;4.43;3.33;;;;;;;;;;5116523;28;20548;-66
2023/07/30 01:16:03;;;;;;;3.97;3.20;;;;;;;;;;5116366;28;20539;-65
2023/07/30 01:18:30;;;;;;;3.57;3.37;;;;;;;;;;5116534;28;20446;-66
2023/07/30 01:21:00;;;;;;;2.73;2.63;;;;;;;;;;5116298;28;20473;-66
2023/07/30 01:23:27;;;;;;;3.30;3.00;;;;;;;;;;5115827;28;20492;-66
2023/07/30 01:25:59;;;;;;;2.80;2.60;;;;;;;;;;5115984;28;20467;-66
2023/07/30 01:28:26;;;;;;;3.07;2.73;;;;;;;;;;5116066;28;20456;-66
2023/07/30 01:30:54;;;;;;;4.90;3.50;;;;;;;;;;5116049;28;20533;-66
2023/07/30 01:33:22;;;;;;;3.93;3.70;;;;;;;;;;5116111;28;20507;-65
2023/07/30 01:35:49;;;;;;;3.73;3.43;;;;;;;;;;5116078;28;20445;-66
2023/07/30 01:38:17;;;;;;;4.13;3.70;;;;;;;;;;5116087;28;20448;-66
2023/07/30 01:40:44;;;;;;;3.87;3.60;;;;;;;;;;5115941;28;20498;-66
2023/07/30 01:43:11;;;;;;;4.27;3.87;;;;;;;;;;5115738;28;20537;-66
2023/07/30 01:45:39;;;;;;;3.80;3.50;;;;;;;;;;5115961;28;20808;-66
2023/07/30 01:48:06;;;;;;;4.03;3.70;;;;;;;;;;5115919;28;20542;-65
2023/07/30 01:50:33;;;;;;;3.30;3.10;;;;;;;;;;5115829;28;20543;-66
2023/07/30 01:53:00;;;;;;;4.70;3.33;;;;;;;;;;5115728;28;20452;-65
2023/07/30 01:55:28;;;;;;;4.73;4.33;;;;;;;;;;5115440;28;20477;-66
2023/07/30 01:57:55;;;;;;;3.73;3.53;;;;;;;;;;5115751;28;20544;-66
2023/07/30 02:00:22;;;;;;;4.03;3.73;;;;;;;;;;5115701;28;20455;-66
2023/07/30 02:02:49;;;;;;;3.70;3.50;;;;;;;;;;5115531;28;20572;-66
2023/07/30 02:05:16;;;;;;;3.73;3.50;;;;;;;;;;5115410;28;20453;-66
2023/07/30 02:07:43;;;;;;;3.50;3.30;;;;;;;;;;5115408;28;20449;-66
2023/07/30 02:10:10;;;;;;;3.60;3.40;;;;;;;;;;5115342;28;20459;-65
2023/07/30 02:12:39;;;;;;;4.10;3.80;;;;;;;;;;5115566;28;20539;-66
2023/07/30 02:15:06;;;;;;;4.43;3.97;;;;;;;;;;5115392;28;20459;-66
2023/07/30 02:17:33;;;;;;;4.10;3.70;;;;;;;;;;5115322;28;20910;-65
2023/07/30 02:20:00;;;;;;;10.30;3.60;;;;;;;;;;5115220;28;20453;-66
2023/07/30 02:22:27;;;;;;;3.80;3.60;;;;;;;;;;5115071;28;20473;-66
2023/07/30 02:24:57;;;;;;;4.33;4.03;;;;;;;;;;5114921;28;20461;-66
2023/07/30 02:27:24;;;;;;;3.40;3.10;;;;;;;;;;5115138;28;20456;-66
2023/07/30 02:29:52;;;;;;;3.87;3.67;;;;;;;;;;5115118;28;20806;-66
2023/07/30 02:32:19;;;;;;;4.13;3.73;;;;;;;;;;5114981;28;20544;-66
2023/07/30 02:34:46;;;;;;;4.23;3.90;;;;;;;;;;5114860;28;20535;-65
2023/07/30 02:37:13;;;;;;;4.13;3.83;;;;;;;;;;5113756;28;20475;-66
2023/07/30 02:39:40;;;;;;;4.83;3.73;;;;;;;;;;5114953;28;20456;-65
2023/07/30 02:42:07;;;;;;;5.53;4.00;;;;;;;;;;5114914;28;20510;-66
2023/07/30 02:44:34;;;;;;;3.70;3.50;;;;;;;;;;5114775;28;20496;-65
2023/07/30 02:47:03;;;;;;;3.70;3.47;;;;;;;;;;5114746;28;20540;-66
2023/07/30 02:49:30;;;;;;;4.70;3.50;;;;;;;;;;5114689;28;20960;-66
2023/07/30 02:51:56;;;;;;;3.77;3.50;;;;;;;;;;5114450;28;20540;-66
2023/07/30 02:54:24;;;;;;;3.57;3.27;;;;;;;;;;5114699;28;20449;-66
2023/07/30 02:56:51;;;;;;;3.93;3.63;;;;;;;;;;5114256;28;20561;-65
2023/07/30 02:59:18;;;;;;;4.93;3.90;;;;;;;;;;5114545;28;20456;-66
2023/07/30 03:01:45;;;;;;;9.00;4.30;;;;;;;;;;5114298;28;21001;-65
2023/07/30 03:04:13;;;;;;;4.70;4.40;;;;;;;;;;5114117;28;21029;-65
2023/07/30 03:06:40;;;;;;;4.60;4.30;;;;;;;;;;5114199;28;20453;-65
2023/07/30 03:09:07;;;;;;;5.30;4.90;;;;;;;;;;5114108;28;20948;-65
2023/07/30 03:11:34;;;;;;;4.90;4.50;;;;;;;;;;5114249;28;20453;-65
2023/07/30 03:14:01;;;;;;;4.73;4.43;;;;;;;;;;5114167;28;20455;-66
2023/07/30 03:16:28;;;;;;;7.50;4.50;;;;;;;;;;5114160;28;20458;-65
2023/07/30 03:18:55;;;;;;;4.40;4.10;;;;;;;;;;5113951;28;20945;-66
2023/07/30 03:21:23;;;;;;;4.83;4.53;;;;;;;;;;5114176;28;20448;-66
2023/07/30 03:23:50;;;;;;;8.77;5.77;;;;;;;;;;5114026;28;20492;-66
2023/07/30 03:26:17;;;;;;;4.60;4.30;;;;;;;;;;5113973;28;20446;-66
2023/07/30 03:28:44;;;;;;;5.20;4.67;;;;;;;;;;5113788;28;20944;-66
2023/07/30 03:31:11;;;;;;;6.13;5.63;;;;;;;;;;5113846;28;20544;-66
2023/07/30 03:33:39;;;;;;;4.90;4.60;;;;;;;;;;5113639;28;20928;-66
2023/07/30 03:36:06;;;;;;;4.70;4.40;;;;;;;;;;5113879;28;20456;-65
2023/07/30 03:38:34;;;;;;;5.90;5.40;;;;;;;;;;5113842;28;20869;-66
2023/07/30 03:41:01;;;;;;;5.00;4.70;;;;;;;;;;5113699;28;20964;-66
2023/07/30 03:43:28;;;;;;;4.80;4.50;;;;;;;;;;5113579;28;20516;-66
2023/07/30 03:45:55;;;;;;;5.30;4.80;;;;;;;;;;5113615;28;20456;-66
2023/07/30 03:48:22;;;;;;;4.60;4.30;;;;;;;;;;5113149;28;20534;-66
2023/07/30 03:50:49;;;;;;;4.80;4.50;;;;;;;;;;5113739;28;20452;-66
2023/07/30 03:53:16;;;;;;;5.10;4.60;;;;;;;;;;5113608;28;20452;-66
2023/07/30 03:55:44;;;;;;;4.63;4.33;;;;;;;;;;5113337;28;20472;-66
2023/07/30 03:58:12;;;;;;;5.00;4.70;;;;;;;;;;5113283;28;20434;-66
2023/07/30 04:00:39;;;;;;;4.77;4.47;;;;;;;;;;5113410;28;20451;-66
2023/07/30 04:03:06;;;;;;;4.80;4.60;;;;;;;;;;5113299;28;20469;-66
2023/07/30 04:05:33;;;;;;;4.70;4.40;;;;;;;;;;5113440;28;20449;-66
2023/07/30 04:08:00;;;;;;;4.60;4.30;;;;;;;;;;5113429;28;20881;-66
2023/07/30 04:10:27;;;;;;;4.43;4.23;;;;;;;;;;5113354;28;20521;-66
2023/07/30 04:12:55;;;;;;;4.03;3.83;;;;;;;;;;5113238;28;20484;-66
2023/07/30 04:15:22;;;;;;;5.17;4.87;;;;;;;;;;5113223;28;20471;-66
2023/07/30 04:17:49;;;;;;;4.90;4.60;;;;;;;;;;5113491;28;20445;-66
2023/07/30 04:20:17;;;;;;;3.80;3.60;;;;;;;;;;5113326;28;20445;-66
2023/07/30 04:22:44;;;;;;;4.60;4.30;;;;;;;;;;5113213;28;20872;-66
2023/07/30 04:25:11;;;;;;;4.70;4.40;;;;;;;;;;5113218;28;20480;-66
2023/07/30 04:27:38;;;;;;;4.30;4.10;;;;;;;;;;5113129;28;20536;-66
2023/07/30 04:30:07;;;;;;;4.50;4.20;;;;;;;;;;5113493;28;20872;-66
2023/07/30 04:32:34;;;;;;;4.50;4.20;;;;;;;;;;5113320;28;20536;-66
2023/07/30 04:35:02;;;;;;;4.43;4.13;;;;;;;;;;5113253;28;20816;-66
2023/07/30 04:37:29;;;;;;;4.13;3.93;;;;;;;;;;5113137;28;20453;-65
2023/07/30 04:39:56;;;;;;;4.00;3.80;;;;;;;;;;5113087;28;20452;-66
2023/07/30 04:42:23;;;;;;;4.40;4.10;;;;;;;;;;5112975;28;20448;-66
2023/07/30 04:44:50;;;;;;;4.33;4.03;;;;;;;;;;5113092;28;20920;-66
2023/07/30 04:47:18;;;;;;;4.90;4.50;;;;;;;;;;5113144;28;20455;-66
2023/07/30 04:49:45;;;;;;;3.70;3.50;;;;;;;;;;5113038;28;20452;-66
2023/07/30 04:52:12;;;;;;;4.23;4.03;;;;;;;;;;5113435;28;20454;-66
2023/07/30 04:54:39;;;;;;;5.20;4.80;;;;;;;;;;5112870;28;20459;-65
2023/07/30 04:57:06;;;;;;;3.80;3.60;;;;;;;;;;5112727;28;20468;-66
2023/07/30 04:59:33;;;;;;;5.40;5.00;;;;;;;;;;5114525;28;20449;-66
2023/07/30 05:02:00;;;;;;;3.57;3.37;;;;;;;;;;5116793;28;20452;-66
2023/07/30 05:04:29;;;;;;;4.00;3.80;;;;;;;;;;5116648;28;20578;-66
2023/07/30 05:06:55;;;;;;;4.90;4.60;;;;;;;;;;5116675;28;20813;-66
2023/07/30 05:09:22;;;;;;;4.77;4.47;;;;;;;;;;5116444;28;20453;-66
2023/07/30 05:11:49;;;;;;;4.27;3.97;;;;;;;;;;5116727;28;20445;-65
2023/07/30 05:14:16;;;;;;;4.93;3.70;;;;;;;;;;5116585;28;20537;-66
2023/07/30 05:16:43;;;;;;;4.63;4.33;;;;;;;;;;5116457;28;20530;-66
2023/07/30 05:19:10;;;;;;;4.07;3.87;;;;;;;;;;5116408;28;20453;-66
2023/07/30 05:21:38;;;;;;;4.30;4.00;;;;;;;;;;5116313;28;20451;-66
2023/07/30 05:24:05;;;;;;;4.50;4.10;;;;;;;;;;5116099;28;20886;-66
2023/07/30 05:26:32;;;;;;;4.40;4.10;;;;;;;;;;5116367;28;20540;-66
2023/07/30 05:28:59;;;;;;;4.63;4.00;;;;;;;;;;5116282;28;20479;-66
2023/07/30 05:31:27;;;;;;;4.33;4.13;;;;;;;;;;5116210;28;20455;-66
2023/07/30 05:33:54;;;;;;;4.60;4.30;;;;;;;;;;5116171;28;20454;-66
2023/07/30 05:36:21;;;;;;;4.93;4.53;;;;;;;;;;5116535;28;20445;-66
2023/07/30 05:38:49;;;;;;;5.30;4.90;;;;;;;;;;5116193;28;20472;-66
2023/07/30 05:41:16;;;;;;;4.00;3.70;;;;;;;;;;5116116;28;20446;-66
2023/07/30 05:43:43;;;;;;;4.27;4.07;;;;;;;;;;5115905;28;20553;-66
2023/07/30 05:46:10;;;;;;;3.80;3.60;;;;;;;;;;5115956;28;20455;-66
2023/07/30 05:48:37;;;;;;;3.50;3.30;;;;;;;;;;5115701;28;20453;-65
2023/07/30 05:51:04;;;;;;;4.20;3.90;;;;;;;;;;5115501;28;20449;-66
2023/07/30 05:53:30;;;;;;;3.73;3.53;;;;;;;;;;5115627;28;20942;-66
2023/07/30 05:55:59;;;;;;;3.60;3.40;;;;;;;;;;5115624;28;20481;-66
2023/07/30 05:58:26;;;;;;;4.17;3.97;;;;;;;;;;5115659;28;20489;-66
2023/07/30 06:00:53;;;;;;;4.03;3.83;;;;;;;;;;5115636;28;20555;-66
2023/07/30 06:03:20;;;;;;;4.60;4.30;;;;;;;;;;5115448;28;20825;-65
2023/07/30 06:05:47;;;;;;;3.73;3.53;;;;;;;;;;5115377;28;20457;-66
2023/07/30 06:08:14;;;;;;;4.60;4.20;;;;;;;;;;5115616;28;20549;-66
2023/07/30 06:10:41;;;;;;;5.10;4.77;;;;;;;;;;5115227;28;20485;-67
2023/07/30 06:13:09;;;;;;;4.63;3.63;;;;;;;;;;5115389;28;20452;-66
2023/07/30 06:15:36;;;;;;;4.23;3.93;;;;;;;;;;5115321;28;20541;-66
2023/07/30 06:18:03;;;;;;;4.20;4.00;;;;;;;;;;5115150;28;20540;-65
2023/07/30 06:20:31;;;;;;;3.63;3.40;;;;;;;;;;5115381;28;20450;-66
2023/07/30 06:22:57;;;;;;;3.77;3.57;;;;;;;;;;5115231;28;20460;-65
2023/07/30 06:25:24;;;;;;;3.60;3.40;;;;;;;;;;5115170;28;20457;-66
2023/07/30 06:27:52;;;;;;;4.40;4.13;;;;;;;;;;5115016;28;20942;-66
2023/07/30 06:30:20;;;;;;;5.17;4.20;;;;;;;;;;5114925;28;20855;-66
2023/07/30 06:32:47;;;;;;;4.23;4.03;;;;;;;;;;5114833;28;20446;-66
2023/07/30 06:35:14;;;;;;;3.87;3.67;;;;;;;;;;5115077;28;20499;-66
2023/07/30 06:37:41;;;;;;;4.33;4.07;;;;;;;;;;5114966;28;20442;-66
2023/07/30 06:40:08;;;;;;;3.80;3.60;;;;;;;;;;5114862;28;20502;-66
2023/07/30 06:42:35;;;;;;;4.40;4.10;;;;;;;;;;5114828;28;20495;-66
2023/07/30 06:45:02;;;;;;;3.60;3.40;;;;;;;;;;5114559;28;20485;-66
2023/07/30 06:47:31;;;;;;;3.80;3.60;;;;;;;;;;5114634;28;20452;-66
2023/07/30 06:49:58;;;;;;;4.70;4.00;;;;;;;;;;5114857;28;20452;-66
2023/07/30 06:52:24;;;;;;;3.73;3.53;;;;;;;;;;5114675;28;20805;-66
2023/07/30 06:54:51;;;;;;;3.00;2.90;;;;;;;;;;5114412;28;20451;-66
2023/07/30 06:57:18;;;;;;;3.50;3.30;;;;;;;;;;5114432;28;20453;-66
2023/07/30 06:59:45;;;;;;;4.40;4.00;;;;;;;;;;5114287;28;20804;-66
2023/07/30 07:02:12;;;;;;;3.63;3.30;;;;;;;;;;5114535;28;20499;-66
2023/07/30 07:04:41;;;;;;;3.50;3.20;;;;;;;;;;5114395;28;20841;-66
2023/07/30 07:07:08;;;;;;;3.67;3.47;;;;;;;;;;5114345;28;20452;-65
2023/07/30 07:09:35;;;;;;;4.07;3.87;;;;;;;;;;5114129;28;20483;-65
2023/07/30 07:12:03;;;;;;;3.20;3.00;;;;;;;;;;5114118;28;20446;-66
2023/07/30 07:14:30;;;;;;;3.33;3.13;;;;;;;;;;5114584;28;20533;-65
2023/07/30 07:16:56;;;;;;;3.13;2.90;;;;;;;;;;5114305;28;20454;-65
2023/07/30 07:19:23;;;;;;;3.67;3.10;;;;;;;;;;5114144;28;20477;-65
2023/07/30 07:21:52;;;;;;;4.57;3.70;;;;;;;;;;5113484;28;20453;-65
2023/07/30 07:24:19;;;;;;;3.57;3.37;;;;;;;;;;5113791;28;20469;-65
2023/07/30 07:26:45;;;;;;;3.90;3.60;;;;;;;;;;5113891;28;20805;-65
2023/07/30 07:29:12;;;;;;;3.50;3.20;;;;;;;;;;5114304;28;20446;-65
2023/07/30 07:31:39;;;;;;;3.10;2.90;;;;;;;;;;5114026;28;20540;-65
2023/07/30 07:34:06;;;;;;;3.37;3.03;;;;;;;;;;5113090;28;20476;-65
2023/07/30 07:36:35;;;;;;;2.90;2.80;;;;;;;;;;5113548;28;20488;-65
2023/07/30 07:39:03;;;;;;;3.50;3.30;;;;;;;;;;5113649;28;20446;-65
2023/07/30 07:41:30;;;;;;;3.67;3.37;;;;;;;;;;5113593;28;20452;-66
2023/07/30 07:43:57;;;;;;;2.43;2.33;;;;;;;;;;5113752;28;20509;-65
2023/07/30 07:46:26;;;;;;;2.40;2.30;;;;;;;;;;5113810;28;20454;-66
2023/07/30 07:48:53;;;;;;;3.83;2.90;;;;;;;;;;5113448;28;20946;-66
2023/07/30 07:51:20;;;;;;;3.27;3.00;;;;;;;;;;5113620;28;20446;-65
2023/07/30 07:53:46;;;;;;;3.20;3.00;;;;;;;;;;5113454;28;20446;-65
2023/07/30 07:56:15;;;;;;;3.20;3.00;;;;;;;;;;5113265;28;20574;-65
2023/07/30 07:58:42;;;;;;;3.03;2.87;;;;;;;;;;5113566;28;20446;-66
2023/07/30 08:01:09;;;;;;;3.20;3.00;;;;;;;;;;5113481;28;20450;-66
2023/07/30 08:03:36;;;;;;;3.47;3.17;;;;;;;;;;5113432;28;20452;-65
2023/07/30 08:06:03;;;;;;;3.30;2.70;;;;;;;;;;5113430;28;20481;-65
2023/07/30 08:08:30;;;;;;;2.50;2.30;;;;;;;;;;5113288;28;20445;-66
2023/07/30 08:10:57;;;;;;;2.90;2.70;;;;;;;;;;5113508;28;20449;-65
2023/07/30 08:13:25;;;;;;;3.50;3.30;;;;;;;;;;5113339;28;20449;-65
2023/07/30 08:15:52;;;;;;;3.10;2.80;;;;;;;;;;5113307;28;20536;-65
2023/07/30 08:18:19;;;;;;;2.93;2.70;;;;;;;;;;5113281;28;20449;-65
2023/07/30 08:20:46;;;;;;;2.77;2.50;;;;;;;;;;5113240;28;20485;-65
2023/07/30 08:23:13;;;;;;;2.40;2.30;;;;;;;;;;5113133;28;20808;-66
2023/07/30 08:25:40;;;;;;;2.70;2.50;;;;;;;;;;5113240;28;20488;-66
2023/07/30 08:28:07;;;;;;;2.50;2.30;;;;;;;;;;5113297;28;20537;-66
2023/07/30 08:30:35;;;;;;;2.80;2.60;;;;;;;;;;5113243;28;20477;-66
2023/07/30 08:33:02;;;;;;;2.77;2.67;;;;;;;;;;5113780;28;20446;-66
2023/07/30 08:35:29;;;;;;;3.87;2.17;;;;;;;;;;5117098;28;20538;-66
2023/07/30 08:37:56;;;;;;;2.90;2.70;;;;;;;;;;5117419;28;20538;-65
2023/07/30 08:40:23;;;;;;;2.60;2.40;;;;;;;;;;5117171;28;20452;-66
2023/07/30 08:42:51;;;;;;;2.23;2.13;;;;;;;;;;5117185;28;20454;-66
2023/07/30 08:45:18;;;;;;;4.63;2.37;;;;;;;;;;5116965;28;20477;-66
2023/07/30 08:47:47;;;;;;;2.90;2.70;;;;;;;;;;5116900;28;20450;-66
2023/07/30 08:50:14;;;;;;;2.70;2.50;;;;;;;;;;5116811;28;20446;-66
2023/07/30 08:52:42;;;;;;;3.43;3.13;;;;;;;;;;5116982;28;20507;-66
2023/07/30 08:55:09;;;;;;;2.87;2.67;;;;;;;;;;5116768;28;20477;-65
2023/07/30 08:57:36;;;;;;;2.60;2.37;;;;;;;;;;5116770;28;20937;-66
2023/07/30 09:00:05;;;;;;;2.77;2.57;;;;;;;;;;5116725;28;20450;-66
2023/07/30 09:02:35;;;;;;;2.60;2.40;;;;;;;;;;5116629;28;20446;-66
2023/07/30 09:05:04;;;;;;;2.80;2.47;;;;;;;;;;5116676;28;20477;-66
2023/07/30 09:07:31;;;;;;;2.70;2.50;;;;;;;;;;5116806;28;20537;-65
2023/07/30 09:09:58;;;;;;;2.43;2.27;;;;;;;;;;5116531;28;20987;-66
2023/07/30 09:12:27;;;;;;;2.47;2.37;;;;;;;;;;5116602;28;20450;-65
2023/07/30 09:14:54;;;;;;;2.30;2.20;;;;;;;;;;5116437;28;20814;-66
2023/07/30 09:17:21;;;;;;;2.17;2.07;;;;;;;;;;5116299;28;20450;-66
2023/07/30 09:19:50;;;;;;;2.50;2.20;;;;;;;;;;5116422;28;20452;-66
2023/07/30 09:22:25;;;;;;;2.37;2.17;;;;;;;;;;5116450;28;20494;-65
2023/07/30 09:24:52;;;;;;;2.73;2.47;;;;;;;;;;5116288;28;20837;-65
2023/07/30 09:27:22;;;;;;;2.93;2.53;;;;;;;;;;5116199;28;20453;-65
2023/07/30 09:29:52;;;;;;;2.10;2.00;;;;;;;;;;5116101;28;20503;-66
2023/07/30 09:32:19;;;;;;;3.07;2.33;;;;;;;;;;5116277;28;20450;-65
2023/07/30 09:34:46;;;;;;;2.63;2.43;;;;;;;;;;5116057;28;20530;-65
2023/07/30 09:37:13;;;;;;;2.20;2.00;;;;;;;;;;5116102;28;20450;-65
2023/07/30 09:39:42;;;;;;;2.00;1.90;;;;;;;;;;5115923;28;20938;-65
2023/07/30 09:42:09;;;;;;;2.17;1.97;;;;;;;;;;5115947;28;20544;-65
2023/07/30 09:44:37;;;;;;;2.63;1.90;;;;;;;;;;5115098;28;20901;-65
2023/07/30 09:47:05;;;;;;;2.00;1.90;;;;;;;;;;5115687;28;20960;-66
2023/07/30 09:49:32;;;;;;;2.43;2.33;;;;;;;;;;5115751;28;20448;-66
2023/07/30 09:51:59;;;;;;;2.70;2.10;;;;;;;;;;5115773;28;20513;-65
2023/07/30 09:54:27;;;;;;;2.40;2.30;;;;;;;;;;5115700;28;20482;-66
2023/07/30 09:56:55;;;;;;;2.30;2.07;;;;;;;;;;5115348;28;20480;-65
2023/07/30 09:59:22;;;;;;;2.20;2.00;;;;;;;;;;5115665;28;20536;-66
2023/07/30 10:01:50;;;;;;;2.70;1.97;;;;;;;;;;5115451;28;20475;-66
2023/07/30 10:04:20;;;;;;;2.10;2.00;;;;;;;;;;5115469;28;20540;-66
2023/07/30 10:06:50;;;;;;;2.20;2.10;;;;;;;;;;5115596;28;20446;-66
2023/07/30 10:09:19;;;;;;;2.90;2.20;;;;;;;;;;5115270;28;20946;-66
2023/07/30 10:11:46;;;;;;;2.43;1.90;;;;;;;;;;5115508;28;20438;-66
2023/07/30 10:14:16;;;;;;;2.50;2.30;;;;;;;;;;5115228;28;20529;-66
2023/07/30 10:16:50;;;;;;;2.10;2.00;;;;;;;;;;5115305;28;20446;-66
2023/07/30 10:19:18;;;;;;;5.37;1.90;;;;;;;;;;5115096;28;20936;-66
2023/07/30 10:21:45;;;;;;;2.17;1.90;;;;;;;;;;5115094;28;20449;-65
2023/07/30 10:24:12;;;;;;;2.03;1.83;;;;;;;;;;5115296;28;20442;-66
2023/07/30 10:26:39;;;;;;;2.00;1.90;;;;;;;;;;5115217;28;20446;-66
2023/07/30 10:29:17;;;;;;;2.07;1.93;;;;;;;;;;5115077;28;20443;-65
2023/07/30 10:31:45;;;;;;;2.10;2.00;;;;;;;;;;5115031;28;20450;-65
2023/07/30 10:34:12;;;;;;;2.80;1.90;;;;;;;;;;5114838;28;20445;-65
2023/07/30 10:36:44;;;;;;;2.00;1.90;;;;;;;;;;5115074;28;20485;-65
2023/07/30 10:39:15;;;;;;;2.13;2.03;;;;;;;;;;5114860;28;20844;-66
2023/07/30 10:41:42;;;;;;;2.20;2.00;;;;;;;;;;5114717;28;20941;-66
2023/07/30 10:44:09;;;;;;;2.67;2.40;;;;;;;;;;5114824;28;20537;-66
2023/07/30 10:46:37;;;;;;;2.13;1.93;;;;;;;;;;5114567;28;20897;-66
2023/07/30 10:49:06;;;;;;;2.70;1.50;;;;;;;;;;5114596;28;20453;-66
2023/07/30 10:51:33;;;;;;;2.10;1.90;;;;;;;;;;5114776;28;20754;-65
2023/07/30 10:54:00;;;;;;;2.23;1.90;;;;;;;;;;5114678;28;20548;-66
2023/07/30 10:56:26;;;;;;;1.90;1.80;;;;;;;;;;5113530;28;20889;-66
2023/07/30 10:58:54;;;;;;;1.97;1.87;;;;;;;;;;5114287;28;20537;-66
2023/07/30 11:01:21;;;;;;;2.03;1.83;;;;;;;;;;5114233;28;21023;-66
2023/07/30 11:03:51;;;;;;;2.00;1.67;;;;;;;;;;5114360;28;20438;-66
2023/07/30 11:06:22;;;;;;;3.30;2.00;;;;;;;;;;5114331;28;20482;-66
2023/07/30 11:08:49;;;;;;;2.57;2.13;;;;;;;;;;5114173;28;20965;-66
2023/07/30 11:11:16;;;;;;;1.60;1.50;;;;;;;;;;5114133;28;20481;-66
2023/07/30 11:13:46;;;;;;;1.60;1.50;;;;;;;;;;5114169;28;20530;-66
2023/07/30 11:16:13;;;;;;;2.23;2.10;;;;;;;;;;5114034;28;20481;-66
2023/07/30 11:18:41;;;;;;;2.03;1.60;;;;;;;;;;5114263;28;20813;-65
2023/07/30 11:21:10;;;;;;;2.90;2.10;;;;;;;;;;5113968;28;20450;-66
2023/07/30 11:23:37;;;;;;;2.77;1.70;;;;;;;;;;5114062;28;20456;-66
2023/07/30 11:26:06;;;;;;;2.13;1.90;;;;;;;;;;5113901;28;20477;-66
2023/07/30 11:28:34;;;;;;;2.83;1.80;;;;;;;;;;5113710;28;20444;-66
2023/07/30 11:31:01;;;;;;;4.00;1.90;;;;;;;;;;5114096;28;20442;-66
2023/07/30 11:33:28;;;;;;;2.10;2.00;;;;;;;;;;5113868;28;20878;-66
2023/07/30 11:35:55;;;;;;;2.53;1.57;;;;;;;;;;5113825;28;20567;-65
2023/07/30 11:38:24;;;;;;;2.67;1.70;;;;;;;;;;5113700;28;20843;-66
2023/07/30 11:40:52;;;;;;;2.70;1.83;;;;;;;;;;5113608;28;20442;-66
2023/07/30 11:43:19;;;;;;;3.30;1.87;;;;;;;;;;5113893;28;20868;-66
2023/07/30 11:45:46;;;;;;;2.40;1.67;;;;;;;;;;5113417;28;20980;-66
2023/07/30 11:48:13;;;;;;;3.00;1.97;;;;;;;;;;5113517;28;20454;-66
2023/07/30 11:50:47;;;;;;;2.13;1.70;;;;;;;;;;5113674;28;20450;-66
2023/07/30 11:53:14;;;;;;;2.33;1.60;;;;;;;;;;5113558;28;20803;-66
2023/07/30 11:55:43;;;;;;;2.87;2.03;;;;;;;;;;5113093;28;20480;-66
2023/07/30 11:58:10;;;;;;;3.40;1.60;;;;;;;;;;5113684;28;20888;-66
2023/07/30 12:00:37;;;;;;;1.70;1.60;;;;;;;;;;5113610;28;20442;-66
2023/07/30 12:03:05;;;;;;;2.03;1.70;;;;;;;;;;5113513;28;20446;-66
2023/07/30 12:05:35;;;;;;;1.90;1.77;;;;;;;;;;5113386;28;20488;-66
2023/07/30 12:08:03;;;;;;;4.70;1.40;;;;;;;;;;5112928;28;20863;-66
2023/07/30 12:10:44;;;;;;;1.60;1.50;;;;;;;;;;5113385;28;20530;-66
2023/07/30 12:13:14;;;;;;;3.20;1.90;;;;;;;;;;5113312;28;20457;-66
2023/07/30 12:15:41;;;;;;;2.50;1.70;;;;;;;;;;5113276;28;20554;-66
2023/07/30 12:18:08;;;;;;;1.70;1.60;;;;;;;;;;5113312;28;20529;-66
2023/07/30 12:20:35;;;;;;;5.63;1.87;;;;;;;;;;5113213;28;20801;-66
2023/07/30 12:23:03;;;;;;;3.20;1.57;;;;;;;;;;5113417;28;20445;-65
2023/07/30 12:25:30;;;;;;;2.67;2.00;;;;;;;;;;5113285;28;20485;-66
2023/07/30 12:27:58;;;;;;;4.13;1.63;;;;;;;;;;5113285;28;20446;-66
2023/07/30 12:30:26;;;;;;;2.33;1.73;;;;;;;;;;5113094;28;20972;-66
2023/07/30 12:32:53;;;;;;;3.30;1.73;;;;;;;;;;5113077;28;20445;-66
2023/07/30 12:35:20;;;;;;;3.97;1.57;;;;;;;;;;5112930;28;20945;-65
2023/07/30 12:37:47;;;;;;;3.83;1.37;;;;;;;;;;5112970;28;20441;-66
2023/07/30 12:40:14;;;;;;;2.33;1.80;;;;;;;;;;5113118;28;20541;-66
2023/07/30 12:42:41;;;;;;;3.67;1.80;;;;;;;;;;5112934;28;20533;-66
2023/07/30 12:45:10;;;;;;;3.43;2.40;;;;;;;;;;5112852;28;20476;-65
2023/07/30 12:47:36;;;;;;;6.77;4.50;;;;;;;;;;5112851;28;20541;-66
2023/07/30 12:50:04;;;;;;;10.87;5.87;;;;;;;;;;5113101;28;20447;-65
2023/07/30 12:52:31;;;;;;;5.30;3.57;;;;;;;;;;5113144;28;20456;-66
2023/07/30 12:54:57;;;;;;;16.60;12.07;;;;;;;;;;5112856;28;20450;-66
2023/07/30 12:57:24;;;;;;;10.83;9.70;;;;;;;;;;5113021;28;20460;-66
2023/07/30 12:59:51;;;;;;;7.37;6.37;;;;;;;;;;5112874;28;20806;-66
2023/07/30 13:02:20;;;;;;;5.63;4.37;;;;;;;;;;5112619;28;20452;-66
2023/07/30 13:04:47;;;;;;;5.83;4.70;;;;;;;;;;5112597;28;20959;-66
2023/07/30 13:07:13;;;;;;;3.10;2.40;;;;;;;;;;5112836;28;20481;-66
2023/07/30 13:09:40;;;;;;;7.40;4.83;;;;;;;;;;5112890;28;20452;-66
2023/07/30 13:12:08;;;;;;;2.50;2.00;;;;;;;;;;5112777;28;20538;-66
2023/07/30 13:14:35;;;;;;;2.03;1.90;;;;;;;;;;5112720;28;20964;-66
2023/07/30 13:17:01;;;;;;;3.43;2.00;;;;;;;;;;5112635;28;20449;-66
2023/07/30 13:19:32;;;;;;;4.43;2.07;;;;;;;;;;5112920;28;20450;-66
2023/07/30 13:21:59;;;;;;;2.17;1.70;;;;;;;;;;5116284;28;20450;-66
2023/07/30 13:24:29;;;;;;;2.07;1.87;;;;;;;;;;5116474;28;20450;-66
2023/07/30 13:26:56;;;;;;;2.30;2.10;;;;;;;;;;5116313;28;20470;-65
2023/07/30 13:29:23;;;;;;;2.40;2.10;;;;;;;;;;5116022;28;20472;-66
2023/07/30 13:31:50;;;;;;;2.70;1.80;;;;;;;;;;5116425;28;20442;-66
2023/07/30 13:34:17;;;;;;;2.97;1.93;;;;;;;;;;5116226;28;20442;-66
2023/07/30 13:36:45;;;;;;;3.23;1.60;;;;;;;;;;5116144;28;20446;-66
2023/07/30 13:39:12;;;;;;;2.20;1.73;;;;;;;;;;5116062;28;20448;-66
2023/07/30 13:41:39;;;;;;;2.57;1.87;;;;;;;;;;5115871;28;21012;-65
2023/07/30 13:44:06;;;;;;;2.30;2.17;;;;;;;;;;5115861;28;20537;-66
2023/07/30 13:46:33;;;;;;;2.17;2.03;;;;;;;;;;5115906;28;20478;-65
2023/07/30 13:48:59;;;;;;;2.07;1.87;;;;;;;;;;5115961;28;20891;-66
2023/07/30 13:51:31;;;;;;;2.47;2.27;;;;;;;;;;5115881;28;20541;-65
2023/07/30 13:54:00;;;;;;;5.20;2.40;;;;;;;;;;5115881;28;20524;-66
2023/07/30 13:56:27;;;;;;;2.40;2.20;;;;;;;;;;5115469;28;20478;-66
2023/07/30 13:58:53;;;;;;;2.27;1.87;;;;;;;;;;5115784;28;20442;-66
2023/07/30 14:01:20;;;;;;;3.50;1.57;;;;;;;;;;5115729;28;20798;-65
2023/07/30 14:03:47;;;;;;;2.13;1.93;;;;;;;;;;5115697;28;20533;-66
2023/07/30 14:06:14;;;;;;;2.23;2.00;;;;;;;;;;5115463;28;20481;-65
2023/07/30 14:08:41;;;;;;;2.13;1.70;;;;;;;;;;5115506;28;20805;-65
2023/07/30 14:11:10;;;;;;;1.90;1.80;;;;;;;;;;5115331;28;20603;-66
2023/07/30 14:13:37;;;;;;;2.80;2.13;;;;;;;;;;5115539;28;20482;-65
2023/07/30 14:16:04;;;;;;;1.93;1.83;;;;;;;;;;5115459;28;20941;-65
2023/07/30 14:18:31;;;;;;;2.60;2.13;;;;;;;;;;5115283;28;20538;-65
2023/07/30 14:20:58;;;;;;;2.00;1.80;;;;;;;;;;5115304;28;20446;-65
2023/07/30 14:23:24;;;;;;;3.37;1.80;;;;;;;;;;5115054;28;20495;-65
2023/07/30 14:25:51;;;;;;;3.70;2.10;;;;;;;;;;5115215;28;20501;-65
2023/07/30 14:28:20;;;;;;;2.00;1.80;;;;;;;;;;5115254;28;20537;-65
2023/07/30 14:30:46;;;;;;;3.10;2.30;;;;;;;;;;5115089;28;20445;-65
2023/07/30 14:33:13;;;;;;;1.90;1.57;;;;;;;;;;5114902;28;20499;-65
2023/07/30 14:35:40;;;;;;;1.60;1.50;;;;;;;;;;5114928;28;20453;-65
2023/07/30 14:38:07;;;;;;;3.53;1.47;;;;;;;;;;5114801;28;20494;-65
2023/07/30 14:40:34;;;;;;;4.47;1.90;;;;;;;;;;5114906;28;20457;-65
2023/07/30 14:43:01;;;;;;;1.60;1.50;;;;;;;;;;5114918;28;20450;-65
2023/07/30 14:45:29;;;;;;;1.70;1.60;;;;;;;;;;5114700;28;20481;-66